sensor_id;sensor_type;location;lat;lon;timestamp;pressure;altitude;pressure_sealevel;temperature;humidity
9822;BME280;4950;46.042;14.472;2022-09-09T00:00:13;97820.38;;;19.13;100.00
9822;BME280;4950;46.042;14.472;2022-09-09T00:02:43;97832.38;;;19.21;99.47
9822;BME280;4950;46.042;14.472;2022-09-09T00:05:16;97825.88;;;19.24;99.05
9822;BME280;4950;46.042;14.472;2022-09-09T00:07:47;97830.44;;;19.28;98.59
9822;BME280;4950;46.042;14.472;2022-09-09T00:10:21;97834.66;;;19.29;98.28
9822;BME280;4950;46.042;14.472;2022-09-09T00:12:58;97838.34;;;19.28;98.27
9822;BME280;4950;46.042;14.472;2022-09-09T00:15:33;97833.41;;;19.32;98.45
9822;BME280;4950;46.042;14.472;2022-09-09T00:18:11;97830.56;;;19.33;97.80
9822;BME280;4950;46.042;14.472;2022-09-09T00:20:45;97823.22;;;19.36;98.05
9822;BME280;4950;46.042;14.472;2022-09-09T00:23:16;97823.53;;;19.39;97.75
9822;BME280;4950;46.042;14.472;2022-09-09T00:25:51;97834.06;;;19.39;97.43
9822;BME280;4950;46.042;14.472;2022-09-09T00:28:23;97826.50;;;19.43;97.43
9822;BME280;4950;46.042;14.472;2022-09-09T00:30:51;97825.50;;;19.44;97.24
9822;BME280;4950;46.042;14.472;2022-09-09T00:33:20;97824.69;;;19.43;97.77
9822;BME280;4950;46.042;14.472;2022-09-09T00:35:51;97820.00;;;19.45;97.12
9822;BME280;4950;46.042;14.472;2022-09-09T00:38:22;97818.94;;;19.46;97.30
9822;BME280;4950;46.042;14.472;2022-09-09T00:40:53;97812.66;;;19.47;97.07
9822;BME280;4950;46.042;14.472;2022-09-09T00:43:27;97813.47;;;19.48;97.07
9822;BME280;4950;46.042;14.472;2022-09-09T00:48:52;97810.59;;;19.49;96.49
9822;BME280;4950;46.042;14.472;2022-09-09T00:51:28;97809.78;;;19.49;96.30
9822;BME280;4950;46.042;14.472;2022-09-09T00:54:08;97810.81;;;19.48;96.16
9822;BME280;4950;46.042;14.472;2022-09-09T00:56:46;97823.66;;;19.44;96.67
9822;BME280;4950;46.042;14.472;2022-09-09T00:59:22;97829.25;;;19.48;96.54
9822;BME280;4950;46.042;14.472;2022-09-09T01:01:51;97823.28;;;19.52;96.18
9822;BME280;4950;46.042;14.472;2022-09-09T01:04:27;97821.91;;;19.50;96.10
9822;BME280;4950;46.042;14.472;2022-09-09T01:07:02;97827.75;;;19.52;96.00
9822;BME280;4950;46.042;14.472;2022-09-09T01:09:35;97832.78;;;19.53;95.91
9822;BME280;4950;46.042;14.472;2022-09-09T01:12:14;97829.94;;;19.55;95.85
9822;BME280;4950;46.042;14.472;2022-09-09T01:14:45;97832.00;;;19.53;95.94
9822;BME280;4950;46.042;14.472;2022-09-09T01:17:16;97830.94;;;19.54;96.09
9822;BME280;4950;46.042;14.472;2022-09-09T01:20:00;97827.75;;;19.52;96.09
9822;BME280;4950;46.042;14.472;2022-09-09T01:22:34;97832.56;;;19.55;96.11
9822;BME280;4950;46.042;14.472;2022-09-09T01:25:20;97834.72;;;19.58;96.12
9822;BME280;4950;46.042;14.472;2022-09-09T01:27:51;97826.03;;;19.58;96.04
9822;BME280;4950;46.042;14.472;2022-09-09T01:30:20;97834.94;;;19.57;96.18
9822;BME280;4950;46.042;14.472;2022-09-09T01:32:50;97823.16;;;19.59;96.20
9822;BME280;4950;46.042;14.472;2022-09-09T01:35:26;97827.94;;;19.62;96.26
9822;BME280;4950;46.042;14.472;2022-09-09T01:37:55;97830.84;;;19.61;96.50
9822;BME280;4950;46.042;14.472;2022-09-09T01:40:22;97828.22;;;19.61;96.57
9822;BME280;4950;46.042;14.472;2022-09-09T01:42:51;97825.09;;;19.64;96.56
9822;BME280;4950;46.042;14.472;2022-09-09T01:45:18;97823.72;;;19.61;96.85
9822;BME280;4950;46.042;14.472;2022-09-09T01:47:45;97824.28;;;19.63;96.97
9822;BME280;4950;46.042;14.472;2022-09-09T01:50:14;97829.91;;;19.67;96.88
9822;BME280;4950;46.042;14.472;2022-09-09T01:52:42;97829.66;;;19.68;96.74
9822;BME280;4950;46.042;14.472;2022-09-09T01:55:09;97834.13;;;19.68;96.69
9822;BME280;4950;46.042;14.472;2022-09-09T01:57:42;97831.47;;;19.68;96.96
9822;BME280;4950;46.042;14.472;2022-09-09T02:00:14;97836.09;;;19.72;96.62
9822;BME280;4950;46.042;14.472;2022-09-09T02:02:48;97834.91;;;19.68;96.63
9822;BME280;4950;46.042;14.472;2022-09-09T02:05:27;97829.41;;;19.70;96.71
9822;BME280;4950;46.042;14.472;2022-09-09T02:08:00;97825.75;;;19.71;96.69
9822;BME280;4950;46.042;14.472;2022-09-09T02:10:32;97827.59;;;19.70;96.72
9822;BME280;4950;46.042;14.472;2022-09-09T02:13:05;97823.94;;;19.71;96.71
9822;BME280;4950;46.042;14.472;2022-09-09T02:15:42;97817.41;;;19.74;96.41
9822;BME280;4950;46.042;14.472;2022-09-09T02:18:11;97819.47;;;19.72;96.52
9822;BME280;4950;46.042;14.472;2022-09-09T02:20:39;97819.69;;;19.70;96.54
9822;BME280;4950;46.042;14.472;2022-09-09T02:23:09;97815.91;;;19.66;96.72
9822;BME280;4950;46.042;14.472;2022-09-09T02:25:37;97815.69;;;19.68;96.88
9822;BME280;4950;46.042;14.472;2022-09-09T02:28:06;97813.84;;;19.68;96.75
9822;BME280;4950;46.042;14.472;2022-09-09T02:30:37;97807.56;;;19.69;96.77
9822;BME280;4950;46.042;14.472;2022-09-09T02:33:07;97817.06;;;19.70;96.56
9822;BME280;4950;46.042;14.472;2022-09-09T02:35:37;97814.66;;;19.81;95.86
9822;BME280;4950;46.042;14.472;2022-09-09T02:38:06;97821.44;;;19.77;95.68
9822;BME280;4950;46.042;14.472;2022-09-09T02:40:34;97814.31;;;19.77;95.66
9822;BME280;4950;46.042;14.472;2022-09-09T02:43:01;97815.09;;;19.78;96.08
9822;BME280;4950;46.042;14.472;2022-09-09T02:45:33;97815.09;;;19.78;96.17
9822;BME280;4950;46.042;14.472;2022-09-09T02:48:09;97815.34;;;19.76;96.29
9822;BME280;4950;46.042;14.472;2022-09-09T02:50:43;97815.09;;;19.78;96.22
9822;BME280;4950;46.042;14.472;2022-09-09T02:53:17;97818.53;;;19.78;96.30
9822;BME280;4950;46.042;14.472;2022-09-09T02:55:47;97819.81;;;19.76;96.30
9822;BME280;4950;46.042;14.472;2022-09-09T02:58:16;97818.53;;;19.78;95.97
9822;BME280;4950;46.042;14.472;2022-09-09T03:00:44;97812.25;;;19.79;96.40
9822;BME280;4950;46.042;14.472;2022-09-09T03:03:13;97825.19;;;19.81;95.95
9822;BME280;4950;46.042;14.472;2022-09-09T03:05:42;97821.50;;;19.82;95.40
9822;BME280;4950;46.042;14.472;2022-09-09T03:08:08;97822.78;;;19.79;95.11
9822;BME280;4950;46.042;14.472;2022-09-09T03:10:35;97808.81;;;19.79;95.15
9822;BME280;4950;46.042;14.472;2022-09-09T03:13:03;97811.91;;;19.76;95.08
9822;BME280;4950;46.042;14.472;2022-09-09T03:15:30;97805.28;;;19.73;95.18
9822;BME280;4950;46.042;14.472;2022-09-09T03:17:58;97809.75;;;19.72;94.74
9822;BME280;4950;46.042;14.472;2022-09-09T03:20:27;97812.81;;;19.69;95.40
9822;BME280;4950;46.042;14.472;2022-09-09T03:22:55;97811.47;;;19.67;95.57
9822;BME280;4950;46.042;14.472;2022-09-09T03:25:23;97813.53;;;19.65;95.80
9822;BME280;4950;46.042;14.472;2022-09-09T03:27:51;97810.63;;;19.66;95.73
9822;BME280;4950;46.042;14.472;2022-09-09T03:30:19;97800.66;;;19.68;95.35
9822;BME280;4950;46.042;14.472;2022-09-09T03:32:46;97803.06;;;19.70;95.46
9822;BME280;4950;46.042;14.472;2022-09-09T03:35:13;97815.03;;;19.72;95.57
9822;BME280;4950;46.042;14.472;2022-09-09T03:37:42;97803.22;;;19.75;95.82
9822;BME280;4950;46.042;14.472;2022-09-09T03:40:09;97807.44;;;19.76;95.66
9822;BME280;4950;46.042;14.472;2022-09-09T03:42:36;97794.03;;;19.78;95.56
9822;BME280;4950;46.042;14.472;2022-09-09T03:45:04;97795.88;;;19.77;95.64
9822;BME280;4950;46.042;14.472;2022-09-09T03:47:31;97804.78;;;19.76;95.69
9822;BME280;4950;46.042;14.472;2022-09-09T03:49:57;97799.31;;;19.78;95.45
9822;BME280;4950;46.042;14.472;2022-09-09T03:52:24;97808.81;;;19.79;95.53
9822;BME280;4950;46.042;14.472;2022-09-09T03:54:53;97805.50;;;19.71;95.41
9822;BME280;4950;46.042;14.472;2022-09-09T03:57:20;97805.63;;;19.65;95.47
9822;BME280;4950;46.042;14.472;2022-09-09T03:59:47;97804.03;;;19.64;95.64
9822;BME280;4950;46.042;14.472;2022-09-09T04:02:13;97804.34;;;19.67;95.67
9822;BME280;4950;46.042;14.472;2022-09-09T04:04:40;97800.59;;;19.63;95.80
9822;BME280;4950;46.042;14.472;2022-09-09T04:07:07;97803.78;;;19.65;95.68
9822;BME280;4950;46.042;14.472;2022-09-09T04:09:34;97813.03;;;19.68;95.38
9822;BME280;4950;46.042;14.472;2022-09-09T04:12:02;97810.63;;;19.66;95.24
9822;BME280;4950;46.042;14.472;2022-09-09T04:14:29;97819.09;;;19.68;95.20
9822;BME280;4950;46.042;14.472;2022-09-09T04:16:56;97817.06;;;19.70;94.91
9822;BME280;4950;46.042;14.472;2022-09-09T04:19:24;97807.31;;;19.71;94.96
9822;BME280;4950;46.042;14.472;2022-09-09T04:21:51;97820.72;;;19.69;94.59
9822;BME280;4950;46.042;14.472;2022-09-09T04:24:18;97815.03;;;19.72;94.81
9822;BME280;4950;46.042;14.472;2022-09-09T04:26:45;97812.03;;;19.69;94.80
9822;BME280;4950;46.042;14.472;2022-09-09T04:29:13;97822.44;;;19.64;95.52
9822;BME280;4950;46.042;14.472;2022-09-09T04:31:40;97817.41;;;19.62;95.51
9822;BME280;4950;46.042;14.472;2022-09-09T04:34:07;97821.44;;;19.65;95.42
9822;BME280;4950;46.042;14.472;2022-09-09T04:36:34;97831.25;;;19.69;94.88
9822;BME280;4950;46.042;14.472;2022-09-09T04:39:01;97828.63;;;19.69;94.77
9822;BME280;4950;46.042;14.472;2022-09-09T04:41:28;97823.59;;;19.68;94.89
9822;BME280;4950;46.042;14.472;2022-09-09T04:43:56;97824.38;;;19.68;95.16
9822;BME280;4950;46.042;14.472;2022-09-09T04:46:25;97822.34;;;19.70;94.92
9822;BME280;4950;46.042;14.472;2022-09-09T04:48:52;97821.66;;;19.75;94.94
9822;BME280;4950;46.042;14.472;2022-09-09T04:51:19;97826.69;;;19.77;94.64
9822;BME280;4950;46.042;14.472;2022-09-09T04:53:46;97819.25;;;19.73;94.61
9822;BME280;4950;46.042;14.472;2022-09-09T04:56:15;97828.41;;;19.71;94.63
9822;BME280;4950;46.042;14.472;2022-09-09T04:58:42;97820.50;;;19.71;94.61
9822;BME280;4950;46.042;14.472;2022-09-09T05:01:11;97828.41;;;19.71;94.61
9822;BME280;4950;46.042;14.472;2022-09-09T05:03:39;97825.75;;;19.71;94.55
9822;BME280;4950;46.042;14.472;2022-09-09T05:06:08;97830.84;;;19.72;94.74
9822;BME280;4950;46.042;14.472;2022-09-09T05:08:36;97826.78;;;19.70;94.30
9822;BME280;4950;46.042;14.472;2022-09-09T05:11:02;97829.41;;;19.70;93.88
9822;BME280;4950;46.042;14.472;2022-09-09T05:13:29;97830.00;;;19.72;93.75
9822;BME280;4950;46.042;14.472;2022-09-09T05:15:57;97837.13;;;19.71;93.35
9822;BME280;4950;46.042;14.472;2022-09-09T05:18:24;97825.56;;;19.72;93.91
9822;BME280;4950;46.042;14.472;2022-09-09T05:20:52;97828.75;;;19.75;93.80
9822;BME280;4950;46.042;14.472;2022-09-09T05:23:18;97818.22;;;19.75;93.86
9822;BME280;4950;46.042;14.472;2022-09-09T05:25:54;97816.16;;;19.77;93.84
9822;BME280;4950;46.042;14.472;2022-09-09T05:28:22;97822.44;;;19.76;93.88
9822;BME280;4950;46.042;14.472;2022-09-09T05:30:55;97822.22;;;19.77;93.33
9822;BME280;4950;46.042;14.472;2022-09-09T05:33:22;97820.88;;;19.75;92.93
9822;BME280;4950;46.042;14.472;2022-09-09T05:35:56;97826.69;;;19.77;92.70
9822;BME280;4950;46.042;14.472;2022-09-09T05:38:23;97832.97;;;19.76;92.72
9822;BME280;4950;46.042;14.472;2022-09-09T05:40:50;97835.84;;;19.74;92.53
9822;BME280;4950;46.042;14.472;2022-09-09T05:43:17;97831.97;;;19.77;92.57
9822;BME280;4950;46.042;14.472;2022-09-09T05:45:45;97841.94;;;19.75;92.23
9822;BME280;4950;46.042;14.472;2022-09-09T05:48:11;97836.09;;;19.72;92.19
9822;BME280;4950;46.042;14.472;2022-09-09T05:50:38;97838.75;;;19.72;92.25
9822;BME280;4950;46.042;14.472;2022-09-09T05:53:06;97837.69;;;19.73;92.15
9822;BME280;4950;46.042;14.472;2022-09-09T05:55:33;97831.97;;;19.77;92.00
9822;BME280;4950;46.042;14.472;2022-09-09T05:57:59;97833.78;;;19.76;91.62
9822;BME280;4950;46.042;14.472;2022-09-09T06:00:26;97828.28;;;19.78;91.30
9822;BME280;4950;46.042;14.472;2022-09-09T06:02:53;97824.63;;;19.79;90.85
9822;BME280;4950;46.042;14.472;2022-09-09T06:05:19;97837.78;;;19.79;90.59
9822;BME280;4950;46.042;14.472;2022-09-09T06:07:48;97838.81;;;19.78;90.73
9822;BME280;4950;46.042;14.472;2022-09-09T06:10:16;97840.66;;;19.77;90.46
9822;BME280;4950;46.042;14.472;2022-09-09T06:12:42;97839.59;;;19.78;90.59
9822;BME280;4950;46.042;14.472;2022-09-09T06:15:09;97837.56;;;19.80;90.34
9822;BME280;4950;46.042;14.472;2022-09-09T06:17:36;97834.69;;;19.82;90.53
9822;BME280;4950;46.042;14.472;2022-09-09T06:20:05;97829.91;;;19.79;90.60
9822;BME280;4950;46.042;14.472;2022-09-09T06:22:31;97824.97;;;19.82;90.58
9822;BME280;4950;46.042;14.472;2022-09-09T06:24:58;97833.16;;;19.86;90.87
9822;BME280;4950;46.042;14.472;2022-09-09T06:27:28;97822.31;;;19.82;90.80
9822;BME280;4950;46.042;14.472;2022-09-09T06:29:55;97832.59;;;19.84;90.98
9822;BME280;4950;46.042;14.472;2022-09-09T06:32:21;97837.19;;;19.88;90.63
9822;BME280;4950;46.042;14.472;2022-09-09T06:34:48;97825.13;;;19.92;90.23
9822;BME280;4950;46.042;14.472;2022-09-09T06:37:15;97831.53;;;19.97;89.81
9822;BME280;4950;46.042;14.472;2022-09-09T06:39:42;97832.66;;;20.01;89.63
9822;BME280;4950;46.042;14.472;2022-09-09T06:42:08;97826.09;;;20.03;89.61
9822;BME280;4950;46.042;14.472;2022-09-09T06:44:36;97813.50;;;20.05;89.77
9822;BME280;4950;46.042;14.472;2022-09-09T06:47:03;97820.22;;;20.13;89.60
9822;BME280;4950;46.042;14.472;2022-09-09T06:49:30;97818.97;;;20.16;88.99
9822;BME280;4950;46.042;14.472;2022-09-09T06:51:57;97824.22;;;20.16;88.87
9822;BME280;4950;46.042;14.472;2022-09-09T06:54:24;97828.31;;;20.23;88.92
9822;BME280;4950;46.042;14.472;2022-09-09T06:56:50;97824.88;;;20.23;88.42
9822;BME280;4950;46.042;14.472;2022-09-09T06:59:17;97827.81;;;20.26;87.90
9822;BME280;4950;46.042;14.472;2022-09-09T07:01:45;97825.44;;;20.25;87.80
9822;BME280;4950;46.042;14.472;2022-09-09T07:04:13;97831.53;;;20.25;88.10
9822;BME280;4950;46.042;14.472;2022-09-09T07:06:41;97829.19;;;20.29;87.49
9822;BME280;4950;46.042;14.472;2022-09-09T07:09:11;97828.94;;;20.30;87.71
9822;BME280;4950;46.042;14.472;2022-09-09T07:11:40;97841.91;;;20.32;87.86
9822;BME280;4950;46.042;14.472;2022-09-09T07:14:08;97834.56;;;20.34;87.68
9822;BME280;4950;46.042;14.472;2022-09-09T07:16:39;97838.31;;;20.38;86.83
9822;BME280;4950;46.042;14.472;2022-09-09T07:19:07;97839.44;;;20.42;86.41
9822;BME280;4950;46.042;14.472;2022-09-09T07:21:34;97842.63;;;20.44;86.58
9822;BME280;4950;46.042;14.472;2022-09-09T07:24:01;97846.88;;;20.45;86.70
9822;BME280;4950;46.042;14.472;2022-09-09T07:26:31;97847.19;;;20.49;86.41
9822;BME280;4950;46.042;14.472;2022-09-09T07:28:57;97846.25;;;20.55;85.43
9822;BME280;4950;46.042;14.472;2022-09-09T07:31:25;97836.00;;;20.59;83.25
9822;BME280;4950;46.042;14.472;2022-09-09T07:33:53;97824.91;;;20.57;83.55
9822;BME280;4950;46.042;14.472;2022-09-09T07:36:23;97831.88;;;20.63;82.92
9822;BME280;4950;46.042;14.472;2022-09-09T07:38:52;97842.25;;;20.69;83.11
9822;BME280;4950;46.042;14.472;2022-09-09T07:41:21;97840.03;;;20.78;82.29
9822;BME280;4950;46.042;14.472;2022-09-09T07:43:49;97845.94;;;20.85;82.00
9822;BME280;4950;46.042;14.472;2022-09-09T07:46:18;97844.50;;;20.95;80.76
9822;BME280;4950;46.042;14.472;2022-09-09T07:48:46;97842.41;;;20.97;80.62
9822;BME280;4950;46.042;14.472;2022-09-09T07:51:18;97845.59;;;20.99;80.29
9822;BME280;4950;46.042;14.472;2022-09-09T07:53:48;97836.16;;;21.03;80.30
9822;BME280;4950;46.042;14.472;2022-09-09T07:56:18;97835.44;;;21.07;79.31
9822;BME280;4950;46.042;14.472;2022-09-09T07:58:47;97835.13;;;21.04;79.47
9822;BME280;4950;46.042;14.472;2022-09-09T08:01:16;97837.75;;;21.04;79.24
9822;BME280;4950;46.042;14.472;2022-09-09T08:03:44;97831.44;;;21.05;79.36
9822;BME280;4950;46.042;14.472;2022-09-09T08:06:11;97828.22;;;21.03;80.22
9822;BME280;4950;46.042;14.472;2022-09-09T08:08:39;97828.31;;;21.08;80.22
9822;BME280;4950;46.042;14.472;2022-09-09T08:11:11;97835.19;;;21.09;80.53
9822;BME280;4950;46.042;14.472;2022-09-09T08:13:39;97842.88;;;21.10;80.51
9822;BME280;4950;46.042;14.472;2022-09-09T08:16:07;97848.00;;;21.17;79.52
9822;BME280;4950;46.042;14.472;2022-09-09T08:18:34;97848.28;;;21.21;80.03
9822;BME280;4950;46.042;14.472;2022-09-09T08:21:06;97844.84;;;21.20;79.95
9822;BME280;4950;46.042;14.472;2022-09-09T08:23:33;97852.53;;;21.22;79.82
9822;BME280;4950;46.042;14.472;2022-09-09T08:26:05;97861.00;;;21.24;79.54
9822;BME280;4950;46.042;14.472;2022-09-09T08:28:33;97871.56;;;21.24;79.19
9822;BME280;4950;46.042;14.472;2022-09-09T08:31:11;97864.13;;;21.21;78.67
9822;BME280;4950;46.042;14.472;2022-09-09T08:33:38;97861.00;;;21.24;78.11
9822;BME280;4950;46.042;14.472;2022-09-09T08:36:09;97865.72;;;21.22;78.33
9822;BME280;4950;46.042;14.472;2022-09-09T08:38:36;97853.81;;;21.19;78.28
9822;BME280;4950;46.042;14.472;2022-09-09T08:41:14;97850.31;;;21.14;78.17
9822;BME280;4950;46.042;14.472;2022-09-09T08:43:46;97847.66;;;21.14;77.73
9822;BME280;4950;46.042;14.472;2022-09-09T08:46:19;97851.66;;;21.16;77.62
9822;BME280;4950;46.042;14.472;2022-09-09T08:48:56;97842.06;;;21.10;78.20
9822;BME280;4950;46.042;14.472;2022-09-09T08:51:26;97842.88;;;21.10;78.07
9822;BME280;4950;46.042;14.472;2022-09-09T08:53:55;97843.66;;;21.11;77.81
9822;BME280;4950;46.042;14.472;2022-09-09T08:56:24;97850.00;;;21.10;77.39
9822;BME280;4950;46.042;14.472;2022-09-09T08:58:55;97834.94;;;21.10;77.09
9822;BME280;4950;46.042;14.472;2022-09-09T09:01:38;97831.81;;;21.14;76.97
9822;BME280;4950;46.042;14.472;2022-09-09T09:04:26;97826.88;;;21.17;75.96
9822;BME280;4950;46.042;14.472;2022-09-09T09:07:06;97820.53;;;21.18;76.14
9822;BME280;4950;46.042;14.472;2022-09-09T09:09:57;97828.41;;;21.13;76.52
9822;BME280;4950;46.042;14.472;2022-09-09T09:12:29;97825.75;;;21.13;77.16
9822;BME280;4950;46.042;14.472;2022-09-09T09:14:59;97821.06;;;21.20;77.10
9822;BME280;4950;46.042;14.472;2022-09-09T09:17:28;97829.06;;;21.25;75.67
9822;BME280;4950;46.042;14.472;2022-09-09T09:19:56;97830.66;;;21.26;75.62
9822;BME280;4950;46.042;14.472;2022-09-09T09:22:30;97837.13;;;21.36;74.95
9822;BME280;4950;46.042;14.472;2022-09-09T09:25:05;97843.94;;;21.32;75.07
9822;BME280;4950;46.042;14.472;2022-09-09T09:27:40;97834.72;;;21.34;75.22
9822;BME280;4950;46.042;14.472;2022-09-09T09:30:15;97839.03;;;21.40;74.60
9822;BME280;4950;46.042;14.472;2022-09-09T09:32:46;97851.53;;;21.45;73.83
9822;BME280;4950;46.042;14.472;2022-09-09T09:35:15;97861.53;;;21.43;73.72
9822;BME280;4950;46.042;14.472;2022-09-09T09:37:42;97856.25;;;21.43;74.00
9822;BME280;4950;46.042;14.472;2022-09-09T09:40:14;97845.47;;;21.44;73.93
9822;BME280;4950;46.042;14.472;2022-09-09T09:42:49;97831.44;;;21.44;74.24
9822;BME280;4950;46.042;14.472;2022-09-09T09:45:26;97820.63;;;21.45;73.36
9822;BME280;4950;46.042;14.472;2022-09-09T09:48:01;97816.97;;;21.46;73.02
9822;BME280;4950;46.042;14.472;2022-09-09T09:50:29;97823.03;;;21.47;72.57
9822;BME280;4950;46.042;14.472;2022-09-09T09:52:58;97811.81;;;21.40;72.52
9822;BME280;4950;46.042;14.472;2022-09-09T09:55:28;97799.41;;;21.40;72.71
9822;BME280;4950;46.042;14.472;2022-09-09T09:58:01;97806.28;;;21.41;72.95
9822;BME280;4950;46.042;14.472;2022-09-09T10:00:28;97807.59;;;21.39;72.59
9822;BME280;4950;46.042;14.472;2022-09-09T10:02:55;97815.22;;;21.35;73.05
9822;BME280;4950;46.042;14.472;2022-09-09T10:05:23;97811.22;;;21.33;72.86
9822;BME280;4950;46.042;14.472;2022-09-09T10:08:01;97811.47;;;21.31;72.75
9822;BME280;4950;46.042;14.472;2022-09-09T10:10:37;97823.38;;;21.34;72.28
9822;BME280;4950;46.042;14.472;2022-09-09T10:13:11;97822.56;;;21.33;71.94
9822;BME280;4950;46.042;14.472;2022-09-09T10:15:49;97820.72;;;21.34;72.33
9822;BME280;4950;46.042;14.472;2022-09-09T10:18:37;97826.00;;;21.34;72.15
9822;BME280;4950;46.042;14.472;2022-09-09T10:21:15;97823.13;;;21.35;72.21
9822;BME280;4950;46.042;14.472;2022-09-09T10:24:01;97833.13;;;21.33;72.62
9822;BME280;4950;46.042;14.472;2022-09-09T10:26:40;97831.28;;;21.34;72.55
9822;BME280;4950;46.042;14.472;2022-09-09T10:29:24;97821.19;;;21.30;72.90
9822;BME280;4950;46.042;14.472;2022-09-09T10:32:05;97828.66;;;21.34;73.24
9822;BME280;4950;46.042;14.472;2022-09-09T10:37:39;97813.28;;;21.30;71.72
9822;BME280;4950;46.042;14.472;2022-09-09T10:40:22;97799.03;;;21.32;71.60
9822;BME280;4950;46.042;14.472;2022-09-09T10:42:58;97801.94;;;21.30;71.96
9822;BME280;4950;46.042;14.472;2022-09-09T10:45:32;97814.09;;;21.31;72.38
9822;BME280;4950;46.042;14.472;2022-09-09T10:48:16;97801.13;;;21.29;72.65
9822;BME280;4950;46.042;14.472;2022-09-09T10:50:52;97798.50;;;21.29;72.91
9822;BME280;4950;46.042;14.472;2022-09-09T10:53:28;97790.81;;;21.28;73.93
9822;BME280;4950;46.042;14.472;2022-09-09T10:56:04;97788.13;;;21.23;75.23
9822;BME280;4950;46.042;14.472;2022-09-09T10:58:37;97779.63;;;21.21;76.23
9822;BME280;4950;46.042;14.472;2022-09-09T11:01:14;97798.84;;;21.16;76.86
9822;BME280;4950;46.042;14.472;2022-09-09T11:03:43;97805.66;;;21.12;77.87
9822;BME280;4950;46.042;14.472;2022-09-09T11:06:14;97801.59;;;21.04;77.98
9822;BME280;4950;46.042;14.472;2022-09-09T11:08:43;97808.88;;;20.97;78.75
9822;BME280;4950;46.042;14.472;2022-09-09T11:11:13;97822.03;;;20.92;79.41
9822;BME280;4950;46.042;14.472;2022-09-09T11:13:49;97832.03;;;20.90;80.07
9822;BME280;4950;46.042;14.472;2022-09-09T11:16:25;97837.47;;;20.83;80.68
9822;BME280;4950;46.042;14.472;2022-09-09T11:18:57;97847.13;;;20.78;81.84
9822;BME280;4950;46.042;14.472;2022-09-09T11:21:29;97849.38;;;20.69;82.66
9822;BME280;4950;46.042;14.472;2022-09-09T11:24:01;97847.78;;;20.68;83.29
9822;BME280;4950;46.042;14.472;2022-09-09T11:26:35;97840.34;;;20.65;83.09
9822;BME280;4950;46.042;14.472;2022-09-09T11:29:36;97850.22;;;20.58;83.49
9822;BME280;4950;46.042;14.472;2022-09-09T11:32:20;97836.59;;;20.61;83.80
9822;BME280;4950;46.042;14.472;2022-09-09T11:34:53;97826.06;;;20.61;84.38
9822;BME280;4950;46.042;14.472;2022-09-09T11:37:48;97833.06;;;20.55;84.69
9822;BME280;4950;46.042;14.472;2022-09-09T11:40:22;97822.50;;;20.55;84.16
9822;BME280;4950;46.042;14.472;2022-09-09T11:43:01;97825.22;;;20.43;84.27
9822;BME280;4950;46.042;14.472;2022-09-09T11:45:31;97816.13;;;20.51;83.76
9822;BME280;4950;46.042;14.472;2022-09-09T11:48:02;97806.25;;;20.46;83.81
9822;BME280;4950;46.042;14.472;2022-09-09T11:50:34;97801.81;;;20.47;84.27
9822;BME280;4950;46.042;14.472;2022-09-09T11:53:22;97792.28;;;20.46;84.21
9822;BME280;4950;46.042;14.472;2022-09-09T11:56:07;97789.66;;;20.46;84.89
9822;BME280;4950;46.042;14.472;2022-09-09T11:58:41;97789.59;;;20.41;85.26
9822;BME280;4950;46.042;14.472;2022-09-09T12:01:24;97807.47;;;20.39;85.35
9822;BME280;4950;46.042;14.472;2022-09-09T12:04:00;97810.50;;;20.30;86.39
9822;BME280;4950;46.042;14.472;2022-09-09T12:06:31;97816.09;;;20.34;86.56
9822;BME280;4950;46.042;14.472;2022-09-09T12:09:07;97820.91;;;20.37;86.44
9822;BME280;4950;46.042;14.472;2022-09-09T12:11:34;97822.50;;;20.38;86.32
9822;BME280;4950;46.042;14.472;2022-09-09T12:14:02;97835.66;;;20.38;86.98
9822;BME280;4950;46.042;14.472;2022-09-09T12:16:32;97816.75;;;20.41;86.69
9822;BME280;4950;46.042;14.472;2022-09-09T12:19:05;97820.41;;;20.40;86.05
9822;BME280;4950;46.042;14.472;2022-09-09T12:21:35;97830.16;;;20.40;86.11
9822;BME280;4950;46.042;14.472;2022-09-09T12:24:08;97834.66;;;20.39;86.33
9822;BME280;4950;46.042;14.472;2022-09-09T12:26:38;97811.53;;;20.46;86.39
9822;BME280;4950;46.042;14.472;2022-09-09T12:29:14;97809.00;;;20.51;86.23
9822;BME280;4950;46.042;14.472;2022-09-09T12:31:48;97811.25;;;20.60;86.37
9822;BME280;4950;46.042;14.472;2022-09-09T12:34:26;97793.44;;;20.67;86.73
9822;BME280;4950;46.042;14.472;2022-09-09T12:37:02;97798.06;;;20.77;86.74
9822;BME280;4950;46.042;14.472;2022-09-09T12:39:34;97797.41;;;20.86;87.39
9822;BME280;4950;46.042;14.472;2022-09-09T12:42:02;97795.63;;;20.92;85.82
9822;BME280;4950;46.042;14.472;2022-09-09T12:44:29;97791.69;;;20.95;85.80
9822;BME280;4950;46.042;14.472;2022-09-09T12:47:01;97778.81;;;20.98;85.46
9822;BME280;4950;46.042;14.472;2022-09-09T12:49:32;97776.25;;;21.03;86.22
9822;BME280;4950;46.042;14.472;2022-09-09T12:52:03;97778.94;;;21.08;86.89
9822;BME280;4950;46.042;14.472;2022-09-09T12:54:31;97773.19;;;21.12;86.96
9822;BME280;4950;46.042;14.472;2022-09-09T12:56:58;97770.31;;;21.13;86.27
9822;BME280;4950;46.042;14.472;2022-09-09T12:59:35;97773.25;;;21.17;85.30
9822;BME280;4950;46.042;14.472;2022-09-09T13:02:16;97768.28;;;21.20;84.76
9822;BME280;4950;46.042;14.472;2022-09-09T13:04:44;97769.03;;;21.16;84.69
9822;BME280;4950;46.042;14.472;2022-09-09T13:07:12;97776.63;;;21.12;84.05
9822;BME280;4950;46.042;14.472;2022-09-09T13:09:41;97769.19;;;21.09;83.70
9822;BME280;4950;46.042;14.472;2022-09-09T13:12:13;97771.53;;;21.05;83.44
9822;BME280;4950;46.042;14.472;2022-09-09T13:14:43;97763.06;;;21.03;83.91
9822;BME280;4950;46.042;14.472;2022-09-09T13:17:19;97746.16;;;21.04;83.73
9822;BME280;4950;46.042;14.472;2022-09-09T13:19:47;97734.31;;;21.07;84.26
9822;BME280;4950;46.042;14.472;2022-09-09T13:22:21;97739.75;;;21.17;84.89
9822;BME280;4950;46.042;14.472;2022-09-09T13:24:58;97732.97;;;21.26;85.88
9822;BME280;4950;46.042;14.472;2022-09-09T13:27:30;97733.56;;;21.34;85.70
9822;BME280;4950;46.042;14.472;2022-09-09T13:29:57;97738.66;;;21.40;84.54
9822;BME280;4950;46.042;14.472;2022-09-09T13:32:27;97734.25;;;21.46;84.32
9822;BME280;4950;46.042;14.472;2022-09-09T13:34:56;97732.47;;;21.52;84.91